Time;durP1;ratioP1;P1;durP2;ratioP2;P2;SDS_P1;SDS_P2;PMS_P1;PMS_P2;Temp;Humidity;BMP_temperature;BMP_pressure;BME280_temperature;BME280_humidity;BME280_pressure;Samples;Min_cycle;Max_cycle;Signal;HPM_P1;HPM_P2
2021/11/05 00:00:26;;;;;;;26.77;15.08;;;;;;;10.66;94.62;100472.92;1659413;86;21092;-70
2021/11/05 00:02:57;;;;;;;29.98;16.02;;;;;;;10.67;94.67;100480.09;1661355;86;21057;-67
2021/11/05 00:05:28;;;;;;;27.15;15.23;;;;;;;10.69;94.77;100471.16;1661279;85;21041;-68
2021/11/05 00:07:58;;;;;;;25.72;15.08;;;;;;;10.70;94.82;100468.74;1637534;86;21077;-69
2021/11/05 00:10:26;;;;;;;24.30;14.00;;;;;;;10.70;94.87;100460.52;1634492;86;21085;-69
2021/11/05 00:12:55;;;;;;;25.70;14.53;;;;;;;10.72;94.90;100459.28;1634588;88;21552;-69
2021/11/05 00:15:24;;;;;;;24.05;14.80;;;;;;;10.74;94.93;100456.34;1634440;86;21143;-69
2021/11/05 00:17:53;;;;;;;23.50;13.43;;;;;;;10.75;94.94;100454.77;1636285;86;21084;-69
2021/11/05 00:20:22;;;;;;;29.02;13.98;;;;;;;10.75;95.01;100441.59;1634541;88;21492;-69
2021/11/05 00:22:50;;;;;;;24.60;14.33;;;;;;;10.77;95.09;100445.83;1634431;86;21108;-71
2021/11/05 00:25:20;;;;;;;27.85;14.38;;;;;;;10.81;95.16;100436.69;1634815;87;21625;-68
2021/11/05 00:27:48;;;;;;;26.87;14.53;;;;;;;10.78;95.24;100427.49;1644999;87;21070;-70
2021/11/05 00:30:17;;;;;;;27.20;13.75;;;;;;;10.80;95.29;100429.52;1644980;86;21501;-69
2021/11/05 00:32:46;;;;;;;24.67;14.47;;;;;;;10.81;95.34;100424.36;1646582;86;21555;-67
2021/11/05 00:35:15;;;;;;;22.65;12.88;;;;;;;10.82;95.39;100421.09;1644858;87;21045;-70
2021/11/05 00:37:43;;;;;;;24.87;14.43;;;;;;;10.84;95.48;100425.33;1646582;86;21097;-68
2021/11/05 00:40:13;;;;;;;25.82;14.40;;;;;;;10.86;95.55;100430.09;1644871;87;21144;-69
2021/11/05 00:42:43;;;;;;;24.92;14.35;;;;;;;10.86;95.59;100438.84;1645028;87;21076;-67
2021/11/05 00:45:12;;;;;;;26.00;14.80;;;;;;;10.87;95.65;100449.60;1644968;86;21029;-69
2021/11/05 00:47:41;;;;;;;30.30;14.75;;;;;;;10.87;95.73;100457.83;1647528;87;21552;-68
2021/11/05 00:50:11;;;;;;;26.17;14.58;;;;;;;10.88;95.79;100454.03;1646489;86;21061;-68
2021/11/05 00:52:40;;;;;;;25.60;14.70;;;;;;;10.90;95.80;100446.46;1648025;86;21113;-67
2021/11/05 00:55:10;;;;;;;26.37;14.45;;;;;;;10.92;95.82;100455.86;1646385;87;21167;-67
2021/11/05 00:57:38;;;;;;;27.65;13.72;;;;;;;10.92;95.86;100443.52;1646217;87;21069;-68
2021/11/05 01:00:13;;;;;;;23.50;14.10;;;;;;;10.93;95.91;100443.33;1648067;86;21154;-70
2021/11/05 01:02:42;;;;;;;24.95;14.10;;;;;;;10.96;95.99;100447.03;1646349;86;21048;-68
2021/11/05 01:05:12;;;;;;;24.35;14.15;;;;;;;10.97;96.04;100447.36;1646415;87;21515;-70
2021/11/05 01:07:40;;;;;;;27.42;13.62;;;;;;;10.99;96.12;100460.34;1646268;87;21101;-69
2021/11/05 01:10:09;;;;;;;23.60;13.83;;;;;;;10.99;96.21;100451.27;1648426;87;21522;-71
2021/11/05 01:12:39;;;;;;;26.05;13.93;;;;;;;11.01;96.29;100448.66;1646451;87;21643;-71
2021/11/05 01:15:08;;;;;;;25.77;14.43;;;;;;;11.03;96.29;100440.23;1646583;86;21081;-69
2021/11/05 01:17:38;;;;;;;27.35;14.40;;;;;;;11.04;96.28;100440.03;1647054;87;21147;-69
2021/11/05 01:20:10;;;;;;;23.57;13.18;;;;;;;11.06;96.32;100435.75;1645023;87;21030;-68
2021/11/05 01:22:39;;;;;;;26.25;14.05;;;;;;;11.07;96.35;100434.70;1645043;87;21482;-68
2021/11/05 01:25:08;;;;;;;23.30;13.72;;;;;;;11.08;96.39;100429.02;1648394;86;21085;-67
2021/11/05 01:27:37;;;;;;;22.42;12.75;;;;;;;11.11;96.43;100425.88;1657066;85;21196;-69
2021/11/05 01:30:08;;;;;;;25.12;14.28;;;;;;;11.13;96.44;100423.45;1674938;85;21068;-69
2021/11/05 01:32:37;;;;;;;27.50;14.33;;;;;;;11.12;96.46;100419.87;1711245;84;21535;-69
2021/11/05 01:35:09;;;;;;;24.07;13.83;;;;;;;11.13;96.52;100427.56;1712220;82;21017;-69
2021/11/05 01:37:38;;;;;;;24.75;13.10;;;;;;;11.14;96.53;100425.15;1676549;85;21511;-72
2021/11/05 01:40:08;;;;;;;25.52;14.00;;;;;;;11.16;96.53;100421.16;1712731;82;21238;-68
2021/11/05 01:42:37;;;;;;;26.35;14.90;;;;;;;11.18;96.54;100416.84;1676509;85;21085;-68
2021/11/05 01:45:07;;;;;;;24.07;14.10;;;;;;;11.19;96.53;100422.66;1711738;84;21030;-69
2021/11/05 01:47:38;;;;;;;22.93;13.85;;;;;;;11.20;96.55;100421.60;1711216;82;21496;-67
2021/11/05 01:50:08;;;;;;;24.98;14.68;;;;;;;11.24;96.54;100428.38;1711382;83;21038;-67
2021/11/05 01:52:39;;;;;;;22.25;13.50;;;;;;;11.24;96.54;100426.48;1711059;84;21581;-69
2021/11/05 01:55:08;;;;;;;24.82;13.15;;;;;;;11.24;96.52;100417.41;1711189;84;21054;-69
2021/11/05 01:57:37;;;;;;;25.17;14.28;;;;;;;11.24;96.49;100429.75;1711151;84;21034;-67
2021/11/05 02:00:09;;;;;;;25.92;13.43;;;;;;;11.25;96.47;100430.08;1711380;83;21477;-69
2021/11/05 02:02:40;;;;;;;27.22;14.10;;;;;;;11.24;96.46;100429.75;1711321;83;21081;-69
2021/11/05 02:05:11;;;;;;;25.70;13.68;;;;;;;11.23;96.49;100423.42;1711068;82;21164;-73
2021/11/05 02:07:47;;;;;;;26.48;14.68;;;;;;;11.25;96.52;100430.08;1684590;84;21081;-68
2021/11/05 02:10:15;;;;;;;25.57;14.35;;;;;;;11.25;96.55;100426.80;1684152;84;21056;-68
2021/11/05 02:12:46;;;;;;;26.75;13.60;;;;;;;11.27;96.64;100415.11;1684205;84;21056;-69
2021/11/05 02:15:15;;;;;;;26.68;13.88;;;;;;;11.30;96.67;100411.96;1701691;84;21088;-71
2021/11/05 02:17:45;;;;;;;23.22;13.22;;;;;;;11.32;96.63;100413.13;1711401;82;21547;-69
2021/11/05 02:20:16;;;;;;;27.62;14.25;;;;;;;11.31;96.58;100406.80;1711156;84;21088;-69
2021/11/05 02:22:45;;;;;;;24.70;14.35;;;;;;;11.32;96.62;100407.13;1711184;82;21037;-68
2021/11/05 02:25:14;;;;;;;28.00;14.43;;;;;;;11.34;96.62;100413.78;1684481;82;21065;-69
2021/11/05 02:27:43;;;;;;;28.17;15.28;;;;;;;11.35;96.62;100425.08;1648104;87;21030;-69
2021/11/05 02:30:12;;;;;;;28.15;15.75;;;;;;;11.34;96.63;100428.86;1646353;86;21284;-68
2021/11/05 02:32:42;;;;;;;29.45;14.93;;;;;;;11.32;96.70;100430.44;1646431;86;21009;-68
2021/11/05 02:35:13;;;;;;;26.77;15.20;;;;;;;11.33;96.75;100427.17;1644749;87;21219;-68
2021/11/05 02:37:44;;;;;;;28.73;15.60;;;;;;;11.37;96.77;100433.95;1646528;86;21062;-69
2021/11/05 02:40:13;;;;;;;26.48;14.18;;;;;;;11.38;96.75;100431.52;1646456;86;21057;-67
2021/11/05 02:42:42;;;;;;;27.80;14.10;;;;;;;11.38;96.74;100430.16;1646409;87;21068;-69
2021/11/05 02:45:11;;;;;;;25.55;14.47;;;;;;;11.38;96.80;100439.75;1646441;86;21489;-73
2021/11/05 02:47:40;;;;;;;28.60;14.75;;;;;;;11.37;96.86;100451.25;1644686;87;21574;-69
2021/11/05 02:50:15;;;;;;;28.02;15.20;;;;;;;11.40;96.94;100447.26;1646414;87;21093;-70
2021/11/05 02:52:43;;;;;;;26.17;15.10;;;;;;;11.43;97.02;100430.39;1646464;87;21554;-70
2021/11/05 02:55:12;;;;;;;27.07;15.18;;;;;;;11.45;97.02;100422.81;1646332;87;21084;-69
2021/11/05 02:57:41;;;;;;;25.17;13.93;;;;;;;11.45;97.05;100429.66;1644708;86;21069;-69
2021/11/05 03:00:11;;;;;;;23.75;13.60;;;;;;;11.47;97.01;100432.20;1646490;86;21485;-71
2021/11/05 03:02:41;;;;;;;24.63;13.93;;;;;;;11.47;96.99;100427.56;1646630;86;21571;-69
2021/11/05 03:05:11;;;;;;;23.90;13.90;;;;;;;11.46;97.03;100429.98;1642444;86;21511;-69
2021/11/05 03:07:41;;;;;;;25.82;14.38;;;;;;;11.49;97.08;100439.19;1620249;88;21199;-68
2021/11/05 03:10:12;;;;;;;29.40;14.83;;;;;;;11.51;97.11;100429.38;1620085;88;21064;-69
2021/11/05 03:12:40;;;;;;;28.65;15.25;;;;;;;11.53;97.14;100428.65;1620127;88;21084;-69
2021/11/05 03:15:09;;;;;;;23.62;13.85;;;;;;;11.55;97.16;100432.89;1620589;87;21226;-70
2021/11/05 03:17:39;;;;;;;23.57;13.98;;;;;;;11.56;97.16;100433.73;1645317;86;21315;-70
2021/11/05 03:20:09;;;;;;;26.90;13.95;;;;;;;11.55;97.18;100426.02;1646439;87;21041;-70
2021/11/05 03:22:39;;;;;;;26.48;14.87;;;;;;;11.54;97.21;100420.22;1646491;86;21097;-69
2021/11/05 03:25:08;;;;;;;26.45;15.03;;;;;;;11.56;97.25;100423.60;1646332;87;21041;-72
2021/11/05 03:27:37;;;;;;;28.55;14.90;;;;;;;11.56;97.27;100414.52;1644630;83;21156;-68
2021/11/05 03:30:08;;;;;;;24.95;14.33;;;;;;;11.58;97.29;100411.89;1646449;86;21049;-71
2021/11/05 03:32:37;;;;;;;24.43;14.05;;;;;;;11.59;97.32;100409.47;1646316;87;21167;-69
2021/11/05 03:35:08;;;;;;;28.25;14.75;;;;;;;11.61;97.38;100405.15;1646269;87;21038;-70
2021/11/05 03:37:37;;;;;;;22.73;13.58;;;;;;;11.61;97.39;100406.00;1644680;87;21522;-70
2021/11/05 03:40:09;;;;;;;26.20;14.65;;;;;;;11.61;97.42;100399.14;1646491;87;21041;-71
2021/11/05 03:42:37;;;;;;;24.12;14.90;;;;;;;11.63;97.43;100410.76;1644455;87;21037;-70
2021/11/05 03:45:07;;;;;;;25.25;13.65;;;;;;;11.64;97.51;100415.20;1646308;86;21144;-70
2021/11/05 03:47:36;;;;;;;27.05;13.98;;;;;;;11.64;97.50;100405.59;1644777;87;21049;-70
2021/11/05 03:50:05;;;;;;;26.52;14.30;;;;;;;11.66;97.50;100415.84;1646424;87;21574;-70
2021/11/05 03:52:35;;;;;;;26.65;14.05;;;;;;;11.67;97.52;100417.53;1646489;87;21442;-69
2021/11/05 03:55:06;;;;;;;24.30;13.50;;;;;;;11.67;97.53;100427.14;1646651;87;21469;-69
2021/11/05 03:57:35;;;;;;;22.70;13.43;;;;;;;11.68;97.54;100420.59;1627841;87;21033;-69
2021/11/05 04:00:09;;;;;;;22.13;13.43;;;;;;;11.70;97.54;100415.78;1620047;88;21112;-69
2021/11/05 04:02:38;;;;;;;23.92;13.98;;;;;;;11.71;97.57;100417.47;1620146;88;21547;-70
2021/11/05 04:05:08;;;;;;;25.12;14.05;;;;;;;11.73;97.57;100419.48;1619730;88;21223;-71
2021/11/05 04:07:38;;;;;;;27.42;14.10;;;;;;;11.74;97.59;100417.06;1634273;87;21049;-70
2021/11/05 04:10:07;;;;;;;26.73;14.43;;;;;;;11.75;97.59;100417.39;1646322;86;21029;-70
2021/11/05 04:12:35;;;;;;;28.57;14.70;;;;;;;11.79;97.56;100423.87;1646370;87;21049;-70
2021/11/05 04:15:06;;;;;;;28.00;14.93;;;;;;;11.80;97.54;100422.82;1646562;87;21084;-71
2021/11/05 04:17:35;;;;;;;25.68;14.03;;;;;;;11.80;97.53;100423.66;1644397;87;21048;-69
2021/11/05 04:20:05;;;;;;;23.55;13.85;;;;;;;11.81;97.55;100423.98;1646397;86;21100;-70
2021/11/05 04:22:34;;;;;;;25.40;14.60;;;;;;;11.81;97.56;100423.98;1646563;87;21208;-68
2021/11/05 04:25:04;;;;;;;24.32;14.45;;;;;;;11.82;97.60;100430.32;1646574;87;21474;-71
2021/11/05 04:27:33;;;;;;;26.27;14.58;;;;;;;11.82;97.67;100425.67;1646285;83;21602;-73
2021/11/05 04:30:05;;;;;;;24.82;14.28;;;;;;;11.84;97.70;100422.20;1643716;86;21039;-69
2021/11/05 04:32:35;;;;;;;28.15;14.33;;;;;;;11.86;97.70;100410.48;1646698;86;21041;-71
2021/11/05 04:35:04;;;;;;;27.77;15.35;;;;;;;11.87;97.70;100412.70;1646538;86;20997;-69
2021/11/05 04:37:36;;;;;;;28.65;14.90;;;;;;;11.87;97.76;100419.57;1646655;86;21037;-69
2021/11/05 04:40:06;;;;;;;30.05;14.65;;;;;;;11.88;97.81;100412.50;1646624;87;21044;-69
2021/11/05 04:42:35;;;;;;;29.55;15.83;;;;;;;11.90;97.86;100420.53;1646675;86;21072;-69
2021/11/05 04:45:04;;;;;;;26.30;15.85;;;;;;;11.95;97.86;100415.27;1646599;86;21096;-70
2021/11/05 04:47:34;;;;;;;30.30;16.80;;;;;;;11.97;97.87;100414.53;1646848;86;21110;-70
2021/11/05 04:50:03;;;;;;;35.15;20.00;;;;;;;11.98;97.87;100417.60;1614597;88;21033;-71
2021/11/05 04:52:33;;;;;;;24.12;13.85;;;;;;;12.00;97.85;100416.34;1613434;89;21476;-69
2021/11/05 04:55:02;;;;;;;27.10;15.13;;;;;;;12.01;97.82;100413.91;1614897;88;21164;-69
2021/11/05 04:57:31;;;;;;;26.93;14.58;;;;;;;12.00;97.80;100405.88;1616586;87;21130;-72
2021/11/05 05:00:00;;;;;;;27.52;14.65;;;;;;;12.00;97.81;100408.62;1646925;87;21009;-71
2021/11/05 05:02:29;;;;;;;25.08;13.93;;;;;;;11.99;97.83;100411.91;1646584;87;21239;-69
2021/11/05 05:04:58;;;;;;;26.07;14.33;;;;;;;12.01;97.83;100418.56;1646847;87;21155;-70
2021/11/05 05:07:26;;;;;;;25.30;14.18;;;;;;;12.02;97.85;100412.02;1614532;89;21101;-70
2021/11/05 05:09:56;;;;;;;27.80;14.73;;;;;;;12.03;97.88;100420.58;1613177;89;21137;-69
2021/11/05 05:12:25;;;;;;;27.75;14.55;;;;;;;12.03;97.92;100425.54;1614524;88;21057;-72
2021/11/05 05:14:53;;;;;;;26.37;14.83;;;;;;;12.03;97.94;100420.05;1616668;87;21186;-73
2021/11/05 05:17:22;;;;;;;30.08;15.43;;;;;;;12.04;97.91;100423.11;1620190;88;21544;-71
2021/11/05 05:19:51;;;;;;;29.25;15.23;;;;;;;12.05;97.97;100432.20;1646381;87;21117;-71
2021/11/05 05:22:20;;;;;;;34.88;16.23;;;;;;;12.06;97.94;100437.48;1646426;87;21613;-69
2021/11/05 05:24:50;;;;;;;31.25;15.95;;;;;;;12.09;97.97;100423.87;1646327;86;21113;-72
2021/11/05 05:27:19;;;;;;;29.10;15.08;;;;;;;12.10;97.98;100413.72;1667448;85;21136;-71
2021/11/05 05:29:48;;;;;;;26.87;14.73;;;;;;;12.11;98.03;100419.54;1688014;85;21038;-71
2021/11/05 05:32:17;;;;;;;30.23;16.20;;;;;;;12.14;98.13;100421.34;1662070;86;21040;-73
2021/11/05 05:34:45;;;;;;;34.65;16.40;;;;;;;12.15;98.17;100423.03;1673089;86;21050;-72
2021/11/05 05:37:14;;;;;;;28.02;14.78;;;;;;;12.15;98.23;100418.92;1660254;86;21112;-73
2021/11/05 05:39:43;;;;;;;28.85;14.85;;;;;;;12.17;98.26;100423.67;1673203;84;21446;-72
2021/11/05 05:42:11;;;;;;;31.93;15.58;;;;;;;12.19;98.24;100422.94;1673075;86;21153;-73
2021/11/05 05:44:40;;;;;;;31.75;16.20;;;;;;;12.22;98.28;100425.80;1582633;90;21105;-72
2021/11/05 05:47:10;;;;;;;29.90;15.35;;;;;;;12.23;98.31;100436.58;1581012;91;21105;-72
2021/11/05 05:49:39;;;;;;;31.42;15.08;;;;;;;12.26;98.37;100441.66;1582789;91;21158;-70
2021/11/05 05:52:08;;;;;;;32.60;15.95;;;;;;;12.27;98.39;100445.25;1582644;89;21057;-73
2021/11/05 05:54:37;;;;;;;32.83;16.57;;;;;;;12.30;98.46;100442.09;1582655;91;21568;-71
2021/11/05 05:57:06;;;;;;;32.75;17.40;;;;;;;12.31;98.47;100453.40;1582668;91;21085;-73
2021/11/05 05:59:36;;;;;;;34.40;17.67;;;;;;;12.32;98.51;100451.81;1581169;91;21116;-73
2021/11/05 06:02:05;;;;;;;33.60;17.37;;;;;;;12.33;98.56;100444.42;1597679;86;21121;-72
2021/11/05 06:04:35;;;;;;;31.62;16.67;;;;;;;12.37;98.62;100457.56;1673157;84;21204;-72
2021/11/05 06:07:04;;;;;;;41.37;17.98;;;;;;;12.40;98.60;100465.92;1662190;86;21072;-72
2021/11/05 06:09:33;;;;;;;30.75;16.85;;;;;;;12.42;98.60;100469.30;1672953;86;21592;-71
2021/11/05 06:12:02;;;;;;;30.92;16.77;;;;;;;12.46;98.62;100475.23;1662190;85;21413;-71
2021/11/05 06:14:30;;;;;;;40.63;17.90;;;;;;;12.49;98.61;100464.67;1673305;84;21065;-73
2021/11/05 06:17:01;;;;;;;34.18;17.82;;;;;;;12.51;98.58;100468.05;1630240;87;21083;-73
2021/11/05 06:19:30;;;;;;;33.28;16.75;;;;;;;12.52;98.60;100467.53;1629890;87;21130;-73
2021/11/05 06:21:59;;;;;;;33.08;16.87;;;;;;;12.54;98.64;100473.66;1630205;87;21051;-72
2021/11/05 06:24:28;;;;;;;30.48;14.85;;;;;;;12.56;98.62;100477.05;1630217;88;21205;-71
2021/11/05 06:26:56;;;;;;;30.65;15.70;;;;;;;12.57;98.65;100470.50;1626584;86;21559;-72
2021/11/05 06:29:25;;;;;;;32.08;15.80;;;;;;;12.60;98.67;100479.70;1615496;89;21035;-72
2021/11/05 06:31:54;;;;;;;33.00;15.70;;;;;;;12.61;98.69;100469.02;1614841;89;21091;-75
2021/11/05 06:34:22;;;;;;;34.48;15.63;;;;;;;12.63;98.74;100454.02;1622161;86;21063;-72
2021/11/05 06:36:51;;;;;;;30.82;15.08;;;;;;;12.65;98.80;100451.05;1658188;86;21063;-72
2021/11/05 06:39:19;;;;;;;35.70;15.78;;;;;;;12.69;98.85;100453.70;1658115;86;21128;-72
2021/11/05 06:41:48;;;;;;;34.80;15.90;;;;;;;12.72;98.91;100461.52;1658295;85;21078;-72
2021/11/05 06:44:17;;;;;;;34.33;15.63;;;;;;;12.73;98.95;100449.47;1658209;85;21134;-73
2021/11/05 06:46:46;;;;;;;30.72;15.55;;;;;;;12.77;99.00;100451.27;1658312;85;21498;-72
2021/11/05 06:49:15;;;;;;;34.20;16.02;;;;;;;12.79;99.08;100458.25;1656921;86;21011;-71
2021/11/05 06:51:45;;;;;;;38.65;17.20;;;;;;;12.83;99.11;100451.27;1656843;86;21054;-72
2021/11/05 06:54:13;;;;;;;36.40;16.97;;;;;;;12.85;99.13;100445.03;1656898;86;21067;-72
2021/11/05 06:56:44;;;;;;;36.60;16.45;;;;;;;12.89;99.18;100450.95;1656680;86;21087;-73
2021/11/05 06:59:13;;;;;;;33.75;16.50;;;;;;;12.92;99.19;100452.75;1656747;86;21027;-71
2021/11/05 07:01:42;;;;;;;39.80;18.65;;;;;;;12.94;99.20;100442.39;1656829;86;21043;-73
2021/11/05 07:04:11;;;;;;;32.55;16.45;;;;;;;12.96;99.22;100442.17;1656884;85;21103;-73
2021/11/05 07:06:51;;;;;;;36.00;16.77;;;;;;;12.99;99.28;100452.22;1656890;86;21826;-72
2021/11/05 07:09:14;;;;;;;37.48;17.17;;;;;;;13.05;99.26;100459.34;1655886;86;21028;-74
2021/11/05 07:11:44;;;;;;;34.45;16.87;;;;;;;13.07;99.15;100451.19;1656798;85;21051;-73
2021/11/05 07:14:15;;;;;;;35.10;16.32;;;;;;;13.09;99.11;100468.86;1656945;86;21098;-71
2021/11/05 07:16:44;;;;;;;34.60;16.45;;;;;;;13.11;99.10;100474.99;1656823;86;21052;-71
2021/11/05 07:19:13;;;;;;;35.43;16.90;;;;;;;13.15;99.09;100472.98;1656806;86;21147;-72
2021/11/05 07:21:42;;;;;;;31.07;15.58;;;;;;;13.18;99.07;100468.99;1658134;86;21530;-73
2021/11/05 07:24:12;;;;;;;36.58;16.35;;;;;;;13.21;99.03;100468.03;1658379;86;21078;-72
2021/11/05 07:26:45;;;;;;;36.38;15.48;;;;;;;13.25;98.97;100478.93;1658513;85;21186;-71
2021/11/05 07:29:12;;;;;;;34.58;15.43;;;;;;;13.29;98.92;100479.34;1684878;85;21058;-71
2021/11/05 07:31:42;;;;;;;35.35;15.83;;;;;;;13.31;98.86;100471.73;1684401;84;21080;-72
2021/11/05 07:34:10;;;;;;;34.90;16.65;;;;;;;13.35;98.79;100474.36;1684356;84;21782;-72
2021/11/05 07:36:39;;;;;;;36.23;17.87;;;;;;;13.37;98.69;100476.38;1684400;84;20995;-74
2021/11/05 07:39:08;;;;;;;38.45;17.07;;;;;;;13.38;98.60;100467.59;1684437;84;21014;-72
2021/11/05 07:41:37;;;;;;;36.90;16.40;;;;;;;13.39;98.51;100472.88;1684383;85;21078;-71
2021/11/05 07:44:06;;;;;;;35.08;17.75;;;;;;;13.41;98.38;100483.14;1684489;84;21054;-72
2021/11/05 07:46:36;;;;;;;37.55;16.52;;;;;;;13.43;98.29;100483.77;1684377;84;21063;-71
2021/11/05 07:49:05;;;;;;;32.20;16.82;;;;;;;13.46;98.20;100477.84;1684512;84;21129;-72
2021/11/05 07:51:35;;;;;;;32.23;16.85;;;;;;;13.48;98.10;100477.09;1684596;85;21046;-71
2021/11/05 07:54:04;;;;;;;37.73;17.32;;;;;;;13.50;98.00;100478.25;1684678;85;21047;-73
2021/11/05 07:56:36;;;;;;;32.95;16.20;;;;;;;13.52;97.89;100495.41;1684630;85;21118;-73
2021/11/05 07:59:06;;;;;;;36.40;16.80;;;;;;;13.54;97.78;100496.03;1685028;84;21077;-73
2021/11/05 08:01:35;;;;;;;37.60;16.90;;;;;;;13.55;97.67;100488.94;1685891;84;21082;-71
2021/11/05 08:04:04;;;;;;;39.80;17.45;;;;;;;13.58;97.56;100491.79;1685847;84;21015;-71
2021/11/05 08:06:33;;;;;;;34.78;16.67;;;;;;;13.60;97.42;100485.53;1686063;84;21047;-72
2021/11/05 08:09:03;;;;;;;39.15;17.87;;;;;;;13.62;97.30;100484.27;1685502;85;21042;-71
2021/11/05 08:11:35;;;;;;;38.45;17.27;;;;;;;13.64;97.18;100499.19;1628977;87;21068;-71
2021/11/05 08:14:04;;;;;;;38.65;16.62;;;;;;;13.66;97.04;100508.64;1628733;87;21039;-72
2021/11/05 08:16:33;;;;;;;34.20;16.10;;;;;;;13.68;96.93;100507.89;1628711;88;21087;-70
2021/11/05 08:19:02;;;;;;;41.80;18.10;;;;;;;13.70;96.74;100529.18;1628737;88;21116;-72
2021/11/05 08:21:31;;;;;;;37.10;16.48;;;;;;;13.72;96.56;100535.31;1630080;88;21098;-71
2021/11/05 08:24:02;;;;;;;39.30;17.92;;;;;;;13.73;96.37;100530.12;1630259;88;21059;-72
2021/11/05 08:26:32;;;;;;;34.35;18.40;;;;;;;13.75;96.28;100532.13;1630097;87;21189;-72
2021/11/05 08:29:03;;;;;;;34.20;17.73;;;;;;;13.78;96.13;100526.19;1641303;85;21208;-71
2021/11/05 08:31:33;;;;;;;36.95;17.23;;;;;;;13.81;95.99;100531.27;1682268;85;21077;-72
2021/11/05 08:34:02;;;;;;;38.60;18.00;;;;;;;13.83;95.89;100528.62;1685769;84;21074;-71
2021/11/05 08:36:31;;;;;;;38.80;17.90;;;;;;;13.88;95.67;100522.46;1685793;84;21097;-72
2021/11/05 08:39:01;;;;;;;40.90;19.45;;;;;;;13.90;95.51;100521.71;1685952;85;21050;-71
2021/11/05 08:41:30;;;;;;;36.58;17.70;;;;;;;13.92;95.29;100509.95;1685740;84;21085;-71
2021/11/05 08:44:01;;;;;;;39.23;19.30;;;;;;;13.94;95.15;100505.91;1685873;84;21544;-72
2021/11/05 08:46:32;;;;;;;38.83;18.92;;;;;;;13.95;95.01;100502.63;1685711;85;21085;-72
2021/11/05 08:49:06;;;;;;;45.08;19.98;;;;;;;13.98;94.94;100495.83;1685581;85;21030;-71
2021/11/05 08:51:36;;;;;;;42.75;19.40;;;;;;;14.01;94.79;100490.73;1685761;85;21092;-71
2021/11/05 08:54:06;;;;;;;42.13;19.02;;;;;;;14.03;94.62;100484.47;1685833;84;21569;-71
2021/11/05 08:56:35;;;;;;;42.13;18.05;;;;;;;14.06;94.49;100484.03;1685607;84;21074;-70
2021/11/05 08:59:04;;;;;;;36.60;18.57;;;;;;;14.08;94.29;100490.17;1685764;85;21066;-71
2021/11/05 09:01:34;;;;;;;39.67;18.77;;;;;;;14.10;94.12;100488.58;1706972;84;21057;-67
2021/11/05 09:04:18;;;;;;;38.70;18.15;;;;;;;14.11;93.98;100485.60;1684338;85;21101;-68
2021/11/05 09:07:08;;;;;;;39.00;18.92;;;;;;;14.13;93.79;100486.23;1683141;84;21495;-70
2021/11/05 09:09:52;;;;;;;36.05;18.62;;;;;;;14.18;93.76;100480.91;1684167;85;21059;-67
2021/11/05 09:12:23;;;;;;;37.28;19.30;;;;;;;14.23;93.72;100475.58;1685562;84;21006;-68
2021/11/05 09:14:59;;;;;;;37.83;18.30;;;;;;;14.31;93.67;100500.70;1685607;85;21105;-68
2021/11/05 09:17:35;;;;;;;35.08;18.62;;;;;;;14.38;93.67;100502.89;1685599;84;21035;-71
2021/11/05 09:20:10;;;;;;;39.80;20.23;;;;;;;14.47;93.54;100499.38;1676763;85;21065;-70
2021/11/05 09:22:52;;;;;;;;;;;;;;;14.55;93.41;100501.34;1688388;85;21104;-69
2021/11/05 09:25:23;;;;;;;34.92;18.30;;;;;;;14.61;93.13;100501.52;1685596;84;20222;-69
2021/11/05 09:28:03;;;;;;;35.30;18.48;;;;;;;14.65;92.80;100494.48;1685749;84;21105;-69
2021/11/05 09:30:33;;;;;;;35.20;18.52;;;;;;;14.69;92.28;100491.06;1675115;84;21086;-70
2021/11/05 09:36:34;;;;;;;36.05;19.05;;;;;;;14.74;91.69;100491.24;1682110;85;21042;-68
2021/11/05 09:39:04;;;;;;;35.13;19.77;;;;;;;14.78;91.53;100488.34;1684918;84;21138;-69
2021/11/05 09:41:33;;;;;;;41.20;19.30;;;;;;;14.82;91.28;100483.23;1685394;85;21118;-67
2021/11/05 09:44:03;;;;;;;38.58;18.82;;;;;;;14.84;90.91;100473.66;1685686;85;21109;-68
2021/11/05 09:46:37;;;;;;;34.73;17.85;;;;;;;14.86;90.46;100476.20;1661496;85;21122;-71
2021/11/05 09:49:05;;;;;;;31.93;16.65;;;;;;;14.88;90.21;100480.42;1685813;85;21422;-70
2021/11/05 09:51:35;;;;;;;37.35;18.25;;;;;;;14.90;89.78;100472.77;1685950;84;21062;-70
2021/11/05 09:54:05;;;;;;;35.45;18.20;;;;;;;14.90;89.44;100464.48;1685857;84;21062;-70
2021/11/05 09:56:36;;;;;;;34.80;18.10;;;;;;;14.91;89.41;100459.28;1685680;84;21470;-70
2021/11/05 09:59:07;;;;;;;37.88;19.20;;;;;;;14.95;89.30;100453.31;1685689;84;21050;-68
2021/11/05 10:01:37;;;;;;;32.70;17.60;;;;;;;14.99;89.19;100440.79;1685827;85;21038;-70
2021/11/05 10:04:05;;;;;;;32.90;17.37;;;;;;;15.01;88.97;100436.73;1627457;85;21084;-71
2021/11/05 10:06:36;;;;;;;37.00;17.35;;;;;;;15.06;88.88;100437.44;1685521;84;21191;-70
2021/11/05 10:09:17;;;;;;;35.65;17.90;;;;;;;15.10;88.61;100450.55;1658104;86;21157;-68
2021/11/05 10:11:47;;;;;;;35.05;18.10;;;;;;;15.15;88.35;100459.53;1680927;85;21121;-71
2021/11/05 10:14:21;;;;;;;41.25;19.37;;;;;;;15.19;87.75;100446.43;1685984;85;21480;-70
2021/11/05 10:16:59;;;;;;;31.12;16.85;;;;;;;15.21;87.62;100447.59;1685624;84;21109;-69
2021/11/05 10:19:50;;;;;;;30.57;16.45;;;;;;;15.23;87.36;100452.34;1719742;83;21071;-70
2021/11/05 10:22:50;;;;;;;37.85;17.48;;;;;;;15.26;87.13;100456.56;1719580;83;21491;-70
2021/11/05 10:25:29;;;;;;;33.92;17.05;;;;;;;15.31;87.14;100456.19;1720103;83;21043;-69
2021/11/05 10:28:12;;;;;;;35.38;17.65;;;;;;;15.37;87.10;100466.86;1657166;86;21059;-68
2021/11/05 10:30:48;;;;;;;34.30;16.80;;;;;;;15.40;86.64;100473.31;1639798;87;21472;-69
2021/11/05 10:33:22;;;;;;;34.83;17.35;;;;;;;15.43;86.18;100467.33;1628552;88;21054;-73
2021/11/05 10:35:53;;;;;;;32.80;16.57;;;;;;;15.45;86.02;100463.27;1628662;88;21083;-70
2021/11/05 10:38:24;;;;;;;29.63;16.07;;;;;;;15.46;85.81;100453.06;1625931;88;21107;-70
2021/11/05 10:40:57;;;;;;;35.92;16.52;;;;;;;15.46;85.68;100440.11;1628780;88;21126;-70
2021/11/05 10:43:44;;;;;;;30.85;17.15;;;;;;;15.47;85.61;100440.41;1628642;87;21086;-70
2021/11/05 10:46:39;;;;;;;31.12;17.20;;;;;;;15.46;85.31;100426.30;1619663;87;21084;-71
2021/11/05 10:49:23;;;;;;;29.87;16.07;;;;;;;15.43;85.18;100446.63;1626823;87;21061;-71
2021/11/05 10:51:55;;;;;;;29.55;16.00;;;;;;;15.41;84.71;100465.34;1607064;88;21144;-70
2021/11/05 10:54:24;;;;;;;26.90;15.15;;;;;;;15.40;84.60;100429.98;1613719;87;21075;-70
2021/11/05 10:56:53;;;;;;;31.73;16.37;;;;;;;15.40;84.73;100421.69;1629837;87;21131;-66
2021/11/05 10:59:22;;;;;;;32.55;18.57;;;;;;;15.40;84.75;100409.27;1630783;88;21523;-71
2021/11/05 11:01:51;;;;;;;30.50;17.60;;;;;;;15.41;84.82;100419.78;1620027;87;21179;-70
2021/11/05 11:04:22;;;;;;;34.05;15.98;;;;;;;15.43;84.95;100424.00;1631468;86;21058;-70
2021/11/05 11:06:51;;;;;;;31.02;15.63;;;;;;;15.46;85.00;100435.96;1618625;87;21582;-71
2021/11/05 11:09:24;;;;;;;28.27;15.25;;;;;;;15.48;84.83;100450.39;1631291;86;21460;-71
2021/11/05 11:11:58;;;;;;;37.78;16.60;;;;;;;15.52;84.79;100443.33;1628121;87;22010;-70
2021/11/05 11:14:32;;;;;;;34.27;16.60;;;;;;;15.56;84.78;100439.58;1629794;87;21543;-70
2021/11/05 11:17:02;;;;;;;39.42;16.70;;;;;;;15.59;84.68;100447.97;1629974;87;22119;-68
2021/11/05 11:19:36;;;;;;;26.87;15.23;;;;;;;15.59;84.54;100448.81;1629959;88;21060;-71
2021/11/05 11:22:10;;;;;;;28.90;15.10;;;;;;;15.60;84.31;100449.66;1630102;87;21155;-70
2021/11/05 11:24:41;;;;;;;34.08;15.72;;;;;;;15.61;84.15;100449.46;1630009;87;22249;-71
2021/11/05 11:27:11;;;;;;;32.50;16.90;;;;;;;15.61;84.16;100453.60;1630102;88;21521;-71